sensor_id;sensor_type;location;lat;lon;timestamp;temperature;humidity
68578;SHT31;61668;45.388;11.784;2022-09-11T00:01:16;19.96;68.93
68578;SHT31;61668;45.388;11.784;2022-09-11T00:03:43;19.93;68.78
68578;SHT31;61668;45.388;11.784;2022-09-11T00:06:11;19.89;68.52
68578;SHT31;61668;45.388;11.784;2022-09-11T00:08:40;19.83;68.29
68578;SHT31;61668;45.388;11.784;2022-09-11T00:11:07;19.74;68.17
68578;SHT31;61668;45.388;11.784;2022-09-11T00:13:41;19.64;67.99
68578;SHT31;61668;45.388;11.784;2022-09-11T00:19:05;19.36;68.05
68578;SHT31;61668;45.388;11.784;2022-09-11T00:21:34;19.24;68.44
68578;SHT31;61668;45.388;11.784;2022-09-11T00:24:00;19.12;68.67
68578;SHT31;61668;45.388;11.784;2022-09-11T00:26:26;19.04;68.52
68578;SHT31;61668;45.388;11.784;2022-09-11T00:28:52;18.98;69.06
68578;SHT31;61668;45.388;11.784;2022-09-11T00:31:20;18.95;69.50
68578;SHT31;61668;45.388;11.784;2022-09-11T00:33:49;18.90;69.99
68578;SHT31;61668;45.388;11.784;2022-09-11T00:36:19;18.86;70.72
68578;SHT31;61668;45.388;11.784;2022-09-11T00:38:49;18.83;71.73
68578;SHT31;61668;45.388;11.784;2022-09-11T00:41:16;18.78;72.20
68578;SHT31;61668;45.388;11.784;2022-09-11T00:46:25;18.80;72.57
68578;SHT31;61668;45.388;11.784;2022-09-11T00:49:18;18.83;72.70
68578;SHT31;61668;45.388;11.784;2022-09-11T00:52:09;18.88;73.00
68578;SHT31;61668;45.388;11.784;2022-09-11T00:54:49;18.92;73.40
68578;SHT31;61668;45.388;11.784;2022-09-11T00:57:23;18.94;73.52
68578;SHT31;61668;45.388;11.784;2022-09-11T00:59:53;18.95;73.64
68578;SHT31;61668;45.388;11.784;2022-09-11T01:02:22;18.95;73.77
68578;SHT31;61668;45.388;11.784;2022-09-11T01:04:54;18.96;73.69
68578;SHT31;61668;45.388;11.784;2022-09-11T01:07:21;18.98;73.69
68578;SHT31;61668;45.388;11.784;2022-09-11T01:09:48;19.02;73.53
68578;SHT31;61668;45.388;11.784;2022-09-11T01:18:48;19.20;73.20
68578;SHT31;61668;45.388;11.784;2022-09-11T01:30:06;19.11;73.12
68578;SHT31;61668;45.388;11.784;2022-09-11T01:38:00;19.05;73.19
68578;SHT31;61668;45.388;11.784;2022-09-11T01:40:36;19.02;73.36
68578;SHT31;61668;45.388;11.784;2022-09-11T01:43:17;19.01;73.55
68578;SHT31;61668;45.388;11.784;2022-09-11T01:45:56;19.00;73.59
68578;SHT31;61668;45.388;11.784;2022-09-11T01:48:28;19.00;73.55
68578;SHT31;61668;45.388;11.784;2022-09-11T01:51:03;19.00;73.58
68578;SHT31;61668;45.388;11.784;2022-09-11T01:53:33;18.98;73.67
68578;SHT31;61668;45.388;11.784;2022-09-11T01:56:10;18.95;73.77
68578;SHT31;61668;45.388;11.784;2022-09-11T01:58:43;18.91;73.93
68578;SHT31;61668;45.388;11.784;2022-09-11T02:01:21;18.88;74.08
68578;SHT31;61668;45.388;11.784;2022-09-11T02:03:57;18.87;74.19
68578;SHT31;61668;45.388;11.784;2022-09-11T02:07:14;18.86;74.35
68578;SHT31;61668;45.388;11.784;2022-09-11T02:09:30;18.87;74.50
68578;SHT31;61668;45.388;11.784;2022-09-11T02:12:12;18.87;74.69
68578;SHT31;61668;45.388;11.784;2022-09-11T02:14:42;18.88;74.88
68578;SHT31;61668;45.388;11.784;2022-09-11T02:17:25;18.87;74.96
68578;SHT31;61668;45.388;11.784;2022-09-11T02:20:04;18.87;75.18
68578;SHT31;61668;45.388;11.784;2022-09-11T02:22:33;18.89;75.28
68578;SHT31;61668;45.388;11.784;2022-09-11T02:25:00;18.90;75.05
68578;SHT31;61668;45.388;11.784;2022-09-11T02:27:27;18.92;75.08
68578;SHT31;61668;45.388;11.784;2022-09-11T02:29:55;18.96;75.07
68578;SHT31;61668;45.388;11.784;2022-09-11T02:32:22;18.95;75.03
68578;SHT31;61668;45.388;11.784;2022-09-11T02:34:50;18.94;75.16
68578;SHT31;61668;45.388;11.784;2022-09-11T02:57:12;18.84;75.54
68578;SHT31;61668;45.388;11.784;2022-09-11T02:59:50;18.79;75.64
68578;SHT31;61668;45.388;11.784;2022-09-11T03:02:21;18.78;75.77
68578;SHT31;61668;45.388;11.784;2022-09-11T03:04:48;18.78;75.80
68578;SHT31;61668;45.388;11.784;2022-09-11T03:07:14;18.79;75.80
68578;SHT31;61668;45.388;11.784;2022-09-11T03:09:40;18.81;75.81
68578;SHT31;61668;45.388;11.784;2022-09-11T03:12:07;18.79;75.86
68578;SHT31;61668;45.388;11.784;2022-09-11T03:14:34;18.80;75.97
68578;SHT31;61668;45.388;11.784;2022-09-11T03:17:00;18.79;75.94
68578;SHT31;61668;45.388;11.784;2022-09-11T03:19:26;18.75;75.89
68578;SHT31;61668;45.388;11.784;2022-09-11T03:21:52;18.75;76.01
68578;SHT31;61668;45.388;11.784;2022-09-11T03:24:18;18.77;76.10
68578;SHT31;61668;45.388;11.784;2022-09-11T03:26:43;18.78;76.04
68578;SHT31;61668;45.388;11.784;2022-09-11T03:29:09;18.77;75.98
68578;SHT31;61668;45.388;11.784;2022-09-11T03:31:35;18.78;76.02
68578;SHT31;61668;45.388;11.784;2022-09-11T03:34:01;18.76;76.08
68578;SHT31;61668;45.388;11.784;2022-09-11T03:36:26;18.73;76.09
68578;SHT31;61668;45.388;11.784;2022-09-11T03:38:52;18.69;76.23
68578;SHT31;61668;45.388;11.784;2022-09-11T03:41:19;18.67;76.31
68578;SHT31;61668;45.388;11.784;2022-09-11T03:43:45;18.67;76.32
68578;SHT31;61668;45.388;11.784;2022-09-11T03:46:11;18.65;76.28
68578;SHT31;61668;45.388;11.784;2022-09-11T03:48:37;18.60;76.33
68578;SHT31;61668;45.388;11.784;2022-09-11T03:51:03;18.58;76.55
68578;SHT31;61668;45.388;11.784;2022-09-11T03:53:32;18.59;76.75
68578;SHT31;61668;45.388;11.784;2022-09-11T03:55:59;18.61;77.00
68578;SHT31;61668;45.388;11.784;2022-09-11T03:58:25;18.66;76.94
68578;SHT31;61668;45.388;11.784;2022-09-11T04:00:50;18.68;76.85
68578;SHT31;61668;45.388;11.784;2022-09-11T04:03:16;18.73;76.72
68578;SHT31;61668;45.388;11.784;2022-09-11T04:05:42;18.79;76.69
68578;SHT31;61668;45.388;11.784;2022-09-11T04:08:19;18.84;76.56
68578;SHT31;61668;45.388;11.784;2022-09-11T04:10:44;18.86;76.37
68578;SHT31;61668;45.388;11.784;2022-09-11T04:13:10;18.84;76.24
68578;SHT31;61668;45.388;11.784;2022-09-11T04:15:36;18.80;76.23
68578;SHT31;61668;45.388;11.784;2022-09-11T04:18:04;18.80;76.22
68578;SHT31;61668;45.388;11.784;2022-09-11T04:20:31;18.81;76.11
68578;SHT31;61668;45.388;11.784;2022-09-11T04:22:57;18.81;76.02
68578;SHT31;61668;45.388;11.784;2022-09-11T04:25:23;18.81;76.06
68578;SHT31;61668;45.388;11.784;2022-09-11T04:27:48;18.80;76.06
68578;SHT31;61668;45.388;11.784;2022-09-11T04:30:13;18.77;76.05
68578;SHT31;61668;45.388;11.784;2022-09-11T04:32:39;18.75;76.10
68578;SHT31;61668;45.388;11.784;2022-09-11T04:35:05;18.70;76.14
68578;SHT31;61668;45.388;11.784;2022-09-11T04:37:31;18.67;76.20
68578;SHT31;61668;45.388;11.784;2022-09-11T04:39:59;18.66;76.22
68578;SHT31;61668;45.388;11.784;2022-09-11T04:42:25;18.65;76.36
68578;SHT31;61668;45.388;11.784;2022-09-11T04:44:51;18.65;76.38
68578;SHT31;61668;45.388;11.784;2022-09-11T04:47:16;18.64;76.45
68578;SHT31;61668;45.388;11.784;2022-09-11T04:49:42;18.61;76.49
68578;SHT31;61668;45.388;11.784;2022-09-11T04:52:10;18.58;76.58
68578;SHT31;61668;45.388;11.784;2022-09-11T04:54:36;18.52;76.60
68578;SHT31;61668;45.388;11.784;2022-09-11T04:57:02;18.49;76.72
68578;SHT31;61668;45.388;11.784;2022-09-11T04:59:28;18.47;76.73
68578;SHT31;61668;45.388;11.784;2022-09-11T05:01:54;18.47;76.70
68578;SHT31;61668;45.388;11.784;2022-09-11T05:04:20;18.45;76.77
68578;SHT31;61668;45.388;11.784;2022-09-11T05:06:46;18.45;76.78
68578;SHT31;61668;45.388;11.784;2022-09-11T05:09:13;18.43;76.75
68578;SHT31;61668;45.388;11.784;2022-09-11T05:11:40;18.39;76.80
68578;SHT31;61668;45.388;11.784;2022-09-11T05:14:06;18.36;76.88
68578;SHT31;61668;45.388;11.784;2022-09-11T05:16:33;18.34;76.92
68578;SHT31;61668;45.388;11.784;2022-09-11T05:19:00;18.34;76.92
68578;SHT31;61668;45.388;11.784;2022-09-11T05:21:28;18.34;76.91
68578;SHT31;61668;45.388;11.784;2022-09-11T05:23:55;18.36;76.90
68578;SHT31;61668;45.388;11.784;2022-09-11T05:26:34;18.36;76.91
68578;SHT31;61668;45.388;11.784;2022-09-11T05:29:03;18.36;76.90
68578;SHT31;61668;45.388;11.784;2022-09-11T05:31:39;18.35;76.92
68578;SHT31;61668;45.388;11.784;2022-09-11T05:34:06;18.34;76.98
68578;SHT31;61668;45.388;11.784;2022-09-11T05:36:32;18.33;77.02
68578;SHT31;61668;45.388;11.784;2022-09-11T05:39:00;18.34;77.04
68578;SHT31;61668;45.388;11.784;2022-09-11T05:41:26;18.35;77.04
68578;SHT31;61668;45.388;11.784;2022-09-11T05:43:52;18.38;77.13
68578;SHT31;61668;45.388;11.784;2022-09-11T05:46:19;18.41;77.13
68578;SHT31;61668;45.388;11.784;2022-09-11T05:48:46;18.43;77.04
68578;SHT31;61668;45.388;11.784;2022-09-11T05:51:13;18.43;77.09
68578;SHT31;61668;45.388;11.784;2022-09-11T05:53:41;18.47;77.21
68578;SHT31;61668;45.388;11.784;2022-09-11T05:56:07;18.50;77.35
68578;SHT31;61668;45.388;11.784;2022-09-11T05:58:38;18.57;77.39
68578;SHT31;61668;45.388;11.784;2022-09-11T06:03:30;18.75;77.33
68578;SHT31;61668;45.388;11.784;2022-09-11T06:05:59;18.85;77.39
68578;SHT31;61668;45.388;11.784;2022-09-11T06:08:27;18.96;77.19
68578;SHT31;61668;45.388;11.784;2022-09-11T06:10:55;19.03;76.72
68578;SHT31;61668;45.388;11.784;2022-09-11T06:13:23;19.12;76.49
68578;SHT31;61668;45.388;11.784;2022-09-11T06:15:50;19.18;76.36
68578;SHT31;61668;45.388;11.784;2022-09-11T06:18:16;19.26;76.01
68578;SHT31;61668;45.388;11.784;2022-09-11T06:20:41;19.35;75.89
68578;SHT31;61668;45.388;11.784;2022-09-11T06:23:08;19.45;75.64
68578;SHT31;61668;45.388;11.784;2022-09-11T06:25:35;19.55;75.40
68578;SHT31;61668;45.388;11.784;2022-09-11T06:28:01;19.62;75.09
68578;SHT31;61668;45.388;11.784;2022-09-11T06:30:28;19.68;74.92
68578;SHT31;61668;45.388;11.784;2022-09-11T06:32:53;19.75;74.78
68578;SHT31;61668;45.388;11.784;2022-09-11T06:35:21;19.80;74.44
68578;SHT31;61668;45.388;11.784;2022-09-11T06:37:47;19.83;74.30
68578;SHT31;61668;45.388;11.784;2022-09-11T06:40:13;19.89;74.21
68578;SHT31;61668;45.388;11.784;2022-09-11T06:42:39;19.97;74.09
68578;SHT31;61668;45.388;11.784;2022-09-11T06:45:05;20.06;73.95
68578;SHT31;61668;45.388;11.784;2022-09-11T06:47:32;20.14;73.87
68578;SHT31;61668;45.388;11.784;2022-09-11T06:49:58;20.20;73.73
68578;SHT31;61668;45.388;11.784;2022-09-11T06:52:23;20.28;73.61
68578;SHT31;61668;45.388;11.784;2022-09-11T06:54:49;20.34;73.41
68578;SHT31;61668;45.388;11.784;2022-09-11T06:57:14;20.39;73.00
68578;SHT31;61668;45.388;11.784;2022-09-11T06:59:40;20.44;72.66
68578;SHT31;61668;45.388;11.784;2022-09-11T07:02:07;20.50;72.27
68578;SHT31;61668;45.388;11.784;2022-09-11T07:04:34;20.58;71.77
68578;SHT31;61668;45.388;11.784;2022-09-11T07:06:59;20.64;71.61
68578;SHT31;61668;45.388;11.784;2022-09-11T07:09:25;20.72;71.60
68578;SHT31;61668;45.388;11.784;2022-09-11T07:11:51;20.77;70.92
68578;SHT31;61668;45.388;11.784;2022-09-11T07:14:18;20.82;70.58
68578;SHT31;61668;45.388;11.784;2022-09-11T07:16:48;20.86;70.63
68578;SHT31;61668;45.388;11.784;2022-09-11T07:19:16;20.92;70.55
68578;SHT31;61668;45.388;11.784;2022-09-11T07:21:43;20.97;70.40
68578;SHT31;61668;45.388;11.784;2022-09-11T07:24:08;21.02;70.02
68578;SHT31;61668;45.388;11.784;2022-09-11T07:26:34;21.06;69.48
68578;SHT31;61668;45.388;11.784;2022-09-11T07:29:00;21.11;69.24
68578;SHT31;61668;45.388;11.784;2022-09-11T07:31:27;21.16;68.53
68578;SHT31;61668;45.388;11.784;2022-09-11T07:33:56;21.20;67.88
68578;SHT31;61668;45.388;11.784;2022-09-11T07:36:24;21.25;67.56
68578;SHT31;61668;45.388;11.784;2022-09-11T07:38:52;21.30;67.76
68578;SHT31;61668;45.388;11.784;2022-09-11T07:41:21;21.34;67.25
68578;SHT31;61668;45.388;11.784;2022-09-11T07:43:54;21.38;66.97
68578;SHT31;61668;45.388;11.784;2022-09-11T07:46:23;21.42;67.10
68578;SHT31;61668;45.388;11.784;2022-09-11T07:48:50;21.47;66.45
68578;SHT31;61668;45.388;11.784;2022-09-11T07:51:17;21.52;66.34
68578;SHT31;61668;45.388;11.784;2022-09-11T07:53:45;21.57;66.32
68578;SHT31;61668;45.388;11.784;2022-09-11T07:56:21;21.63;66.26
68578;SHT31;61668;45.388;11.784;2022-09-11T07:58:49;21.70;65.99
68578;SHT31;61668;45.388;11.784;2022-09-11T08:01:17;21.77;65.99
68578;SHT31;61668;45.388;11.784;2022-09-11T08:03:45;21.84;65.65
68578;SHT31;61668;45.388;11.784;2022-09-11T08:06:14;21.90;65.38
68578;SHT31;61668;45.388;11.784;2022-09-11T08:08:43;21.98;65.14
68578;SHT31;61668;45.388;11.784;2022-09-11T08:11:10;22.07;65.54
68578;SHT31;61668;45.388;11.784;2022-09-11T08:13:40;22.22;64.90
68578;SHT31;61668;45.388;11.784;2022-09-11T08:16:06;22.39;65.17
68578;SHT31;61668;45.388;11.784;2022-09-11T08:18:32;22.90;64.82
68578;SHT31;61668;45.388;11.784;2022-09-11T08:21:00;24.33;61.61
68578;SHT31;61668;45.388;11.784;2022-09-11T08:23:32;24.83;60.68
68578;SHT31;61668;45.388;11.784;2022-09-11T08:26:05;25.19;59.22
68578;SHT31;61668;45.388;11.784;2022-09-11T08:28:34;25.92;57.10
68578;SHT31;61668;45.388;11.784;2022-09-11T08:31:01;27.59;53.83
68578;SHT31;61668;45.388;11.784;2022-09-11T08:33:28;29.09;51.57
68578;SHT31;61668;45.388;11.784;2022-09-11T08:35:56;30.38;49.16
68578;SHT31;61668;45.388;11.784;2022-09-11T08:38:22;31.46;47.12
68578;SHT31;61668;45.388;11.784;2022-09-11T08:40:49;32.37;45.39
68578;SHT31;61668;45.388;11.784;2022-09-11T08:43:22;33.19;43.86
68578;SHT31;61668;45.388;11.784;2022-09-11T08:45:52;33.91;42.48
68578;SHT31;61668;45.388;11.784;2022-09-11T08:48:28;34.56;41.58
68578;SHT31;61668;45.388;11.784;2022-09-11T08:51:09;35.19;39.14
68578;SHT31;61668;45.388;11.784;2022-09-11T08:53:40;35.67;39.33
68578;SHT31;61668;45.388;11.784;2022-09-11T08:56:08;36.02;37.58
68578;SHT31;61668;45.388;11.784;2022-09-11T09:04:50;36.58;35.68
68578;SHT31;61668;45.388;11.784;2022-09-11T09:22:00;37.33;33.34
68578;SHT31;61668;45.388;11.784;2022-09-11T09:24:44;37.04;33.39
68578;SHT31;61668;45.388;11.784;2022-09-11T09:27:16;36.88;33.84
68578;SHT31;61668;45.388;11.784;2022-09-11T09:30:17;36.75;33.78
68578;SHT31;61668;45.388;11.784;2022-09-11T09:32:50;36.64;34.28
68578;SHT31;61668;45.388;11.784;2022-09-11T09:35:20;36.48;34.30
68578;SHT31;61668;45.388;11.784;2022-09-11T09:38:08;36.37;33.65
68578;SHT31;61668;45.388;11.784;2022-09-11T09:41:24;35.92;32.82
68578;SHT31;61668;45.388;11.784;2022-09-11T09:46:02;35.14;34.10
68578;SHT31;61668;45.388;11.784;2022-09-11T09:48:43;35.00;34.67
68578;SHT31;61668;45.388;11.784;2022-09-11T09:51:10;34.93;34.93
68578;SHT31;61668;45.388;11.784;2022-09-11T09:56:08;34.36;34.26
68578;SHT31;61668;45.388;11.784;2022-09-11T09:58:41;33.88;34.29
68578;SHT31;61668;45.388;11.784;2022-09-11T10:01:47;33.41;35.05
68578;SHT31;61668;45.388;11.784;2022-09-11T10:04:21;33.02;35.05
68578;SHT31;61668;45.388;11.784;2022-09-11T10:06:53;32.67;35.88
68578;SHT31;61668;45.388;11.784;2022-09-11T10:09:32;32.47;36.70
68578;SHT31;61668;45.388;11.784;2022-09-11T10:11:59;32.39;36.32
68578;SHT31;61668;45.388;11.784;2022-09-11T10:14:28;32.28;36.45
68578;SHT31;61668;45.388;11.784;2022-09-11T10:17:29;32.09;37.05
68578;SHT31;61668;45.388;11.784;2022-09-11T10:22:50;31.51;37.03
68578;SHT31;61668;45.388;11.784;2022-09-11T10:25:25;31.32;37.60
68578;SHT31;61668;45.388;11.784;2022-09-11T10:28:02;31.20;37.66
68578;SHT31;61668;45.388;11.784;2022-09-11T10:30:34;31.09;38.29
68578;SHT31;61668;45.388;11.784;2022-09-11T10:33:04;31.14;38.25
68578;SHT31;61668;45.388;11.784;2022-09-11T10:35:40;31.12;37.68
68578;SHT31;61668;45.388;11.784;2022-09-11T10:38:17;31.03;37.56
68578;SHT31;61668;45.388;11.784;2022-09-11T10:40:54;30.86;37.58
68578;SHT31;61668;45.388;11.784;2022-09-11T10:43:30;30.74;37.83
68578;SHT31;61668;45.388;11.784;2022-09-11T10:51:31;30.39;37.78
68578;SHT31;61668;45.388;11.784;2022-09-11T10:59:33;30.42;39.58
68578;SHT31;61668;45.388;11.784;2022-09-11T11:02:33;30.63;38.56
68578;SHT31;61668;45.388;11.784;2022-09-11T11:05:06;30.70;38.53
68578;SHT31;61668;45.388;11.784;2022-09-11T11:16:18;30.68;37.41
68578;SHT31;61668;45.388;11.784;2022-09-11T11:19:17;30.47;37.61
68578;SHT31;61668;45.388;11.784;2022-09-11T11:25:05;30.25;38.01
68578;SHT31;61668;45.388;11.784;2022-09-11T11:30:29;30.27;38.22
68578;SHT31;61668;45.388;11.784;2022-09-11T11:33:26;30.42;39.14
68578;SHT31;61668;45.388;11.784;2022-09-11T11:41:44;30.57;38.06
68578;SHT31;61668;45.388;11.784;2022-09-11T11:44:24;30.52;38.36
68578;SHT31;61668;45.388;11.784;2022-09-11T11:46:58;30.54;38.56
68578;SHT31;61668;45.388;11.784;2022-09-11T15:42:31;27.71;42.93
68578;SHT31;61668;45.388;11.784;2022-09-11T15:44:58;27.71;43.23
68578;SHT31;61668;45.388;11.784;2022-09-11T15:47:24;27.69;42.71
68578;SHT31;61668;45.388;11.784;2022-09-11T15:49:49;27.66;42.56
68578;SHT31;61668;45.388;11.784;2022-09-11T15:52:16;27.63;42.59
68578;SHT31;61668;45.388;11.784;2022-09-11T15:54:41;27.59;42.37
68578;SHT31;61668;45.388;11.784;2022-09-11T15:57:09;27.54;42.42
68578;SHT31;61668;45.388;11.784;2022-09-11T15:59:35;27.51;41.96
68578;SHT31;61668;45.388;11.784;2022-09-11T16:02:01;27.48;41.95
68578;SHT31;61668;45.388;11.784;2022-09-11T16:04:27;27.43;41.91
68578;SHT31;61668;45.388;11.784;2022-09-11T16:06:55;27.39;42.05
68578;SHT31;61668;45.388;11.784;2022-09-11T16:09:22;27.34;41.93
68578;SHT31;61668;45.388;11.784;2022-09-11T16:11:51;27.30;41.97
68578;SHT31;61668;45.388;11.784;2022-09-11T16:14:22;27.26;41.27
68578;SHT31;61668;45.388;11.784;2022-09-11T16:16:52;27.22;41.57
68578;SHT31;61668;45.388;11.784;2022-09-11T16:19:19;27.18;42.11
68578;SHT31;61668;45.388;11.784;2022-09-11T16:21:47;27.12;42.13
68578;SHT31;61668;45.388;11.784;2022-09-11T16:24:14;27.07;42.24
68578;SHT31;61668;45.388;11.784;2022-09-11T16:26:41;27.02;42.19
68578;SHT31;61668;45.388;11.784;2022-09-11T16:29:08;26.96;42.21
68578;SHT31;61668;45.388;11.784;2022-09-11T16:31:39;26.90;42.19
68578;SHT31;61668;45.388;11.784;2022-09-11T16:34:05;26.84;41.81
68578;SHT31;61668;45.388;11.784;2022-09-11T16:36:31;26.78;42.34
68578;SHT31;61668;45.388;11.784;2022-09-11T16:39:21;26.71;42.22
68578;SHT31;61668;45.388;11.784;2022-09-11T16:41:47;26.64;42.58
68578;SHT31;61668;45.388;11.784;2022-09-11T16:44:13;26.57;42.31
68578;SHT31;61668;45.388;11.784;2022-09-11T16:46:40;26.51;42.32
68578;SHT31;61668;45.388;11.784;2022-09-11T16:49:06;26.45;42.61
68578;SHT31;61668;45.388;11.784;2022-09-11T16:51:34;26.38;42.98
68578;SHT31;61668;45.388;11.784;2022-09-11T16:54:00;26.32;43.11
68578;SHT31;61668;45.388;11.784;2022-09-11T16:56:28;26.25;43.21
68578;SHT31;61668;45.388;11.784;2022-09-11T16:58:54;26.19;43.40
68578;SHT31;61668;45.388;11.784;2022-09-11T17:01:23;26.12;43.60
68578;SHT31;61668;45.388;11.784;2022-09-11T17:03:53;26.05;43.90
68578;SHT31;61668;45.388;11.784;2022-09-11T17:06:21;25.96;43.90
68578;SHT31;61668;45.388;11.784;2022-09-11T17:08:52;25.89;44.03
68578;SHT31;61668;45.388;11.784;2022-09-11T17:11:18;25.83;44.27
68578;SHT31;61668;45.388;11.784;2022-09-11T17:13:46;25.76;44.54
68578;SHT31;61668;45.388;11.784;2022-09-11T17:16:13;25.69;44.94
68578;SHT31;61668;45.388;11.784;2022-09-11T17:18:46;25.61;45.28
68578;SHT31;61668;45.388;11.784;2022-09-11T17:21:14;25.54;45.67
68578;SHT31;61668;45.388;11.784;2022-09-11T17:23:41;25.45;45.84
68578;SHT31;61668;45.388;11.784;2022-09-11T17:26:08;25.37;46.20
68578;SHT31;61668;45.388;11.784;2022-09-11T17:28:36;25.30;46.30
68578;SHT31;61668;45.388;11.784;2022-09-11T17:31:03;25.21;46.49
68578;SHT31;61668;45.388;11.784;2022-09-11T17:33:32;25.12;46.76
68578;SHT31;61668;45.388;11.784;2022-09-11T17:36:02;25.03;47.07
68578;SHT31;61668;45.388;11.784;2022-09-11T17:38:29;24.94;47.87
68578;SHT31;61668;45.388;11.784;2022-09-11T17:40:56;24.85;48.58
68578;SHT31;61668;45.388;11.784;2022-09-11T17:43:23;24.76;48.81
68578;SHT31;61668;45.388;11.784;2022-09-11T17:45:49;24.65;48.92
68578;SHT31;61668;45.388;11.784;2022-09-11T17:48:18;24.57;49.20
68578;SHT31;61668;45.388;11.784;2022-09-11T17:50:44;24.47;49.50
68578;SHT31;61668;45.388;11.784;2022-09-11T17:53:11;24.39;50.11
68578;SHT31;61668;45.388;11.784;2022-09-11T17:55:37;24.29;51.00
68578;SHT31;61668;45.388;11.784;2022-09-11T17:58:03;24.19;51.54
68578;SHT31;61668;45.388;11.784;2022-09-11T18:00:29;24.09;51.94
68578;SHT31;61668;45.388;11.784;2022-09-11T18:02:55;24.00;52.33
68578;SHT31;61668;45.388;11.784;2022-09-11T18:05:22;23.91;52.61
68578;SHT31;61668;45.388;11.784;2022-09-11T18:07:49;23.83;52.75
68578;SHT31;61668;45.388;11.784;2022-09-11T18:10:15;23.76;53.36
68578;SHT31;61668;45.388;11.784;2022-09-11T18:12:46;23.68;53.91
68578;SHT31;61668;45.388;11.784;2022-09-11T18:15:12;23.61;54.22
68578;SHT31;61668;45.388;11.784;2022-09-11T18:17:37;23.53;53.79
68578;SHT31;61668;45.388;11.784;2022-09-11T18:20:03;23.46;53.43
68578;SHT31;61668;45.388;11.784;2022-09-11T18:22:30;23.39;53.65
68578;SHT31;61668;45.388;11.784;2022-09-11T18:24:58;23.33;53.88
68578;SHT31;61668;45.388;11.784;2022-09-11T18:27:23;23.27;53.97
68578;SHT31;61668;45.388;11.784;2022-09-11T18:29:49;23.22;54.10
68578;SHT31;61668;45.388;11.784;2022-09-11T18:32:14;23.17;54.61
68578;SHT31;61668;45.388;11.784;2022-09-11T18:34:40;23.11;55.23
68578;SHT31;61668;45.388;11.784;2022-09-11T18:37:05;23.07;56.05
68578;SHT31;61668;45.388;11.784;2022-09-11T18:39:31;23.04;56.91
68578;SHT31;61668;45.388;11.784;2022-09-11T18:41:58;23.01;57.98
68578;SHT31;61668;45.388;11.784;2022-09-11T18:44:23;22.97;58.60
68578;SHT31;61668;45.388;11.784;2022-09-11T18:46:52;22.94;59.61
68578;SHT31;61668;45.388;11.784;2022-09-11T18:49:19;22.91;60.62
68578;SHT31;61668;45.388;11.784;2022-09-11T18:51:45;22.89;61.29
68578;SHT31;61668;45.388;11.784;2022-09-11T18:54:15;22.90;61.89
68578;SHT31;61668;45.388;11.784;2022-09-11T18:56:47;22.92;62.27
68578;SHT31;61668;45.388;11.784;2022-09-11T18:59:15;22.93;62.61
68578;SHT31;61668;45.388;11.784;2022-09-11T19:01:41;22.93;62.91
68578;SHT31;61668;45.388;11.784;2022-09-11T19:04:08;22.92;63.17
68578;SHT31;61668;45.388;11.784;2022-09-11T19:06:36;22.90;63.53
68578;SHT31;61668;45.388;11.784;2022-09-11T19:09:03;22.88;63.91
68578;SHT31;61668;45.388;11.784;2022-09-11T19:11:30;22.85;64.19
68578;SHT31;61668;45.388;11.784;2022-09-11T19:14:00;22.83;64.47
68578;SHT31;61668;45.388;11.784;2022-09-11T19:16:32;22.83;64.75
68578;SHT31;61668;45.388;11.784;2022-09-11T19:18:58;22.82;64.97
68578;SHT31;61668;45.388;11.784;2022-09-11T19:21:28;22.81;65.15
68578;SHT31;61668;45.388;11.784;2022-09-11T19:23:55;22.78;65.38
68578;SHT31;61668;45.388;11.784;2022-09-11T19:28:53;22.74;65.67
68578;SHT31;61668;45.388;11.784;2022-09-11T19:31:20;22.68;65.90
68578;SHT31;61668;45.388;11.784;2022-09-11T19:33:51;22.63;66.08
68578;SHT31;61668;45.388;11.784;2022-09-11T19:36:20;22.63;66.13
68578;SHT31;61668;45.388;11.784;2022-09-11T19:38:50;22.61;66.29
68578;SHT31;61668;45.388;11.784;2022-09-11T19:41:24;22.61;66.45
68578;SHT31;61668;45.388;11.784;2022-09-11T19:43:53;22.59;66.70
68578;SHT31;61668;45.388;11.784;2022-09-11T19:46:20;22.55;66.95
68578;SHT31;61668;45.388;11.784;2022-09-11T19:48:50;22.51;67.14
68578;SHT31;61668;45.388;11.784;2022-09-11T19:51:27;22.48;67.25
68578;SHT31;61668;45.388;11.784;2022-09-11T19:53:56;22.43;67.42
68578;SHT31;61668;45.388;11.784;2022-09-11T19:56:25;22.42;67.57
68578;SHT31;61668;45.388;11.784;2022-09-11T19:58:52;22.40;67.76
68578;SHT31;61668;45.388;11.784;2022-09-11T20:01:19;22.38;67.82
68578;SHT31;61668;45.388;11.784;2022-09-11T20:03:48;22.37;67.90
68578;SHT31;61668;45.388;11.784;2022-09-11T20:06:18;22.35;68.02
68578;SHT31;61668;45.388;11.784;2022-09-11T20:08:47;22.31;68.18
68578;SHT31;61668;45.388;11.784;2022-09-11T20:11:16;22.28;68.37
68578;SHT31;61668;45.388;11.784;2022-09-11T20:13:45;22.22;68.47
68578;SHT31;61668;45.388;11.784;2022-09-11T20:16:15;22.20;68.67
68578;SHT31;61668;45.388;11.784;2022-09-11T20:18:57;22.15;68.90
68578;SHT31;61668;45.388;11.784;2022-09-11T20:21:29;22.11;69.11
68578;SHT31;61668;45.388;11.784;2022-09-11T20:23:55;22.07;69.27
68578;SHT31;61668;45.388;11.784;2022-09-11T20:26:25;22.03;69.37
68578;SHT31;61668;45.388;11.784;2022-09-11T20:28:57;22.02;69.50
68578;SHT31;61668;45.388;11.784;2022-09-11T20:31:32;22.00;69.65
68578;SHT31;61668;45.388;11.784;2022-09-11T20:34:00;21.98;69.86
68578;SHT31;61668;45.388;11.784;2022-09-11T20:36:27;21.97;69.99
68578;SHT31;61668;45.388;11.784;2022-09-11T20:38:54;21.96;70.06
68578;SHT31;61668;45.388;11.784;2022-09-11T20:41:25;21.96;70.16
68578;SHT31;61668;45.388;11.784;2022-09-11T20:43:53;21.93;70.33
68578;SHT31;61668;45.388;11.784;2022-09-11T20:46:23;21.88;70.50
68578;SHT31;61668;45.388;11.784;2022-09-11T20:48:50;21.82;70.74
68578;SHT31;61668;45.388;11.784;2022-09-11T20:51:17;21.77;70.94
68578;SHT31;61668;45.388;11.784;2022-09-11T20:53:46;21.74;71.08
68578;SHT31;61668;45.388;11.784;2022-09-11T20:56:13;21.70;71.19
68578;SHT31;61668;45.388;11.784;2022-09-11T20:58:44;21.69;71.47
68578;SHT31;61668;45.388;11.784;2022-09-11T21:01:13;21.67;71.57
68578;SHT31;61668;45.388;11.784;2022-09-11T21:03:47;21.63;71.74
68578;SHT31;61668;45.388;11.784;2022-09-11T21:06:15;21.61;71.93
68578;SHT31;61668;45.388;11.784;2022-09-11T21:08:42;21.57;72.08
68578;SHT31;61668;45.388;11.784;2022-09-11T21:11:08;21.54;72.24
68578;SHT31;61668;45.388;11.784;2022-09-11T21:13:36;21.50;72.37